Accueil
METAR-TAF:

METAR-TAF

Aéroports :

Shawbury, Angleterre

latitude: 52-48N, longitude: 002-40W, altitude: 76 m

Observation

Le bulletin a été fait il y a 1 heure et 2 minutes, à 07:50 UTC
Vent 16 kt de sud-ouest
Température 14°C
Humidité 82%
Pression 1014 hPa
Visibilité 10 km ou plus
Quelques nuages à une hauteur de 1500 ft
Nuages fragmentés à une hauteur de 3800 ft

METAR: EGOS 240750Z 23016KT 9999 FEW015 BKN038 14/11 Q1014 BLU NOSIG

Heure: 09:52 (08:52 UTC)

Prévision

Le bulletin a été fait il y a 1 heure et 8 minutes, à 07:44 UTC
Prévision valable du 24 à 09 UTC au 24 à 18 UTC
Vent 10 kt de sud-ouest
Visibilité 10 km ou plus
Quelques nuages à une hauteur de 3000 ft
Nuages épars à une hauteur de 4000 ft
Temporairement
du 24 à 10 UTC au 24 à 15 UTC
Vent 12 kt de sud-ouest avec des rafales jusqu'à 20 kt

TAF: EGOS 240744Z 2409/2418 23010KT 9999 FEW030 SCT040 TEMPO 2410/2415 23012G20KT

Observations et prévisions météorologiques de plus de 4000 aéroports (messages METAR et TAF).

Les stations disponibles sont représentées par des disques jaunes et rouges sur la carte.

Passer la souris dessus pour voir le nom de la station.

Cliquer dessus pour voir les observations et prévisions météorologiques.

Pour changer de carte: cliquez sur les boutons verts avec une croix noire pour zoomer, sur le bouton vert avec un tiret pour effectuer un zoom arrière, ou sur les flèches vertes pour les cartes adjacentes.


METAR-TAF: